sensor_id;sensor_type;location;lat;lon;timestamp;pressure;altitude;pressure_sealevel;temperature;humidity
22662;BME280;11497;52.222;21.246;2023-03-14T00:00:23;98850.03;;;9.13;73.37
22662;BME280;11497;52.222;21.246;2023-03-14T00:03:11;98843.97;;;9.12;73.48
22662;BME280;11497;52.222;21.246;2023-03-14T00:05:38;98837.03;;;8.95;73.61
22662;BME280;11497;52.222;21.246;2023-03-14T00:08:06;98834.44;;;8.95;74.11
22662;BME280;11497;52.222;21.246;2023-03-14T00:10:36;98836.03;;;8.98;74.10
22662;BME280;11497;52.222;21.246;2023-03-14T00:13:05;98823.38;;;8.90;73.89
22662;BME280;11497;52.222;21.246;2023-03-14T00:15:33;98834.59;;;8.75;74.36
22662;BME280;11497;52.222;21.246;2023-03-14T00:18:02;98828.38;;;8.78;74.51
22662;BME280;11497;52.222;21.246;2023-03-14T00:20:30;98837.41;;;8.71;74.79
22662;BME280;11497;52.222;21.246;2023-03-14T00:22:58;98825.31;;;8.70;75.00
22662;BME280;11497;52.222;21.246;2023-03-14T00:25:26;98819.56;;;8.63;75.09
22662;BME280;11497;52.222;21.246;2023-03-14T00:27:53;98821.25;;;8.64;75.02
22662;BME280;11497;52.222;21.246;2023-03-14T00:30:21;98820.03;;;8.54;75.20
22662;BME280;11497;52.222;21.246;2023-03-14T00:32:49;98812.09;;;8.73;74.53
22662;BME280;11497;52.222;21.246;2023-03-14T00:35:17;98801.59;;;8.74;74.44
22662;BME280;11497;52.222;21.246;2023-03-14T00:37:46;98798.56;;;8.66;74.26
22662;BME280;11497;52.222;21.246;2023-03-14T00:40:14;98799.91;;;8.73;74.14
22662;BME280;11497;52.222;21.246;2023-03-14T00:42:42;98793.81;;;8.57;74.31
22662;BME280;11497;52.222;21.246;2023-03-14T00:45:10;98806.47;;;8.47;74.39
22662;BME280;11497;52.222;21.246;2023-03-14T00:47:38;98789.19;;;8.45;74.80
22662;BME280;11497;52.222;21.246;2023-03-14T00:50:06;98789.66;;;8.53;74.29
22662;BME280;11497;52.222;21.246;2023-03-14T00:52:34;98781.69;;;8.56;74.54
22662;BME280;11497;52.222;21.246;2023-03-14T00:55:02;98785.53;;;8.49;74.59
22662;BME280;11497;52.222;21.246;2023-03-14T00:57:30;98766.97;;;8.38;73.96
22662;BME280;11497;52.222;21.246;2023-03-14T00:59:58;98762.97;;;8.48;74.16
22662;BME280;11497;52.222;21.246;2023-03-14T01:02:26;98754.84;;;8.37;74.15
22662;BME280;11497;52.222;21.246;2023-03-14T01:04:56;98750.41;;;8.21;74.17
22662;BME280;11497;52.222;21.246;2023-03-14T01:07:24;98757.09;;;8.25;74.32
22662;BME280;11497;52.222;21.246;2023-03-14T01:09:52;98751.16;;;8.06;74.51
22662;BME280;11497;52.222;21.246;2023-03-14T01:12:20;98744.53;;;7.99;74.70
22662;BME280;11497;52.222;21.246;2023-03-14T01:14:48;98742.22;;;7.93;74.96
22662;BME280;11497;52.222;21.246;2023-03-14T01:17:16;98738.19;;;8.05;74.90
22662;BME280;11497;52.222;21.246;2023-03-14T01:19:44;98718.78;;;7.93;74.76
22662;BME280;11497;52.222;21.246;2023-03-14T01:22:12;98734.41;;;7.93;75.06
22662;BME280;11497;52.222;21.246;2023-03-14T01:24:40;98728.00;;;8.00;74.40
22662;BME280;11497;52.222;21.246;2023-03-14T01:27:08;98724.94;;;8.09;74.43
22662;BME280;11497;52.222;21.246;2023-03-14T01:29:36;98730.06;;;7.93;74.45
22662;BME280;11497;52.222;21.246;2023-03-14T01:32:04;98736.41;;;7.88;74.78
22662;BME280;11497;52.222;21.246;2023-03-14T01:34:32;98724.41;;;8.02;74.08
22662;BME280;11497;52.222;21.246;2023-03-14T01:37:00;98730.91;;;7.94;74.09
22662;BME280;11497;52.222;21.246;2023-03-14T01:39:29;98731.38;;;8.19;73.51
22662;BME280;11497;52.222;21.246;2023-03-14T01:41:57;98722.00;;;7.98;73.39
22662;BME280;11497;52.222;21.246;2023-03-14T01:44:27;98723.31;;;7.89;73.31
22662;BME280;11497;52.222;21.246;2023-03-14T01:46:55;98732.09;;;7.70;73.84
22662;BME280;11497;52.222;21.246;2023-03-14T01:49:29;98736.19;;;7.75;73.99
22662;BME280;11497;52.222;21.246;2023-03-14T01:52:14;98736.59;;;7.66;73.90
22662;BME280;11497;52.222;21.246;2023-03-14T01:54:52;98733.34;;;7.80;73.53
22662;BME280;11497;52.222;21.246;2023-03-14T02:00:05;98742.38;;;7.73;73.41
22662;BME280;11497;52.222;21.246;2023-03-14T02:02:54;98738.84;;;7.74;73.12
22662;BME280;11497;52.222;21.246;2023-03-14T02:05:25;98729.44;;;7.71;73.02
22662;BME280;11497;52.222;21.246;2023-03-14T02:08:01;98736.13;;;7.58;73.44
22662;BME280;11497;52.222;21.246;2023-03-14T02:10:38;98725.50;;;7.62;73.11
22662;BME280;11497;52.222;21.246;2023-03-14T02:13:08;98734.44;;;7.57;73.65
22662;BME280;11497;52.222;21.246;2023-03-14T02:15:54;98730.06;;;7.57;73.46
22662;BME280;11497;52.222;21.246;2023-03-14T02:18:51;98711.22;;;7.52;73.36
22662;BME280;11497;52.222;21.246;2023-03-14T02:27:09;98707.13;;;7.11;74.31
22662;BME280;11497;52.222;21.246;2023-03-14T02:30:06;98712.31;;;7.11;74.68
22662;BME280;11497;52.222;21.246;2023-03-14T02:32:37;98702.59;;;6.95;74.86
22662;BME280;11497;52.222;21.246;2023-03-14T02:35:09;98692.19;;;6.95;75.12
22662;BME280;11497;52.222;21.246;2023-03-14T02:38:00;98682.22;;;7.05;74.92
22662;BME280;11497;52.222;21.246;2023-03-14T02:40:35;98680.28;;;6.91;74.73
22662;BME280;11497;52.222;21.246;2023-03-14T02:43:03;98667.88;;;6.96;74.59
22662;BME280;11497;52.222;21.246;2023-03-14T02:45:41;98666.13;;;6.97;74.38
22662;BME280;11497;52.222;21.246;2023-03-14T02:48:19;98657.63;;;6.93;74.29
22662;BME280;11497;52.222;21.246;2023-03-14T02:50:50;98639.22;;;6.79;74.45
22662;BME280;11497;52.222;21.246;2023-03-14T02:53:26;98650.41;;;6.81;74.55
22662;BME280;11497;52.222;21.246;2023-03-14T02:55:57;98642.59;;;6.81;74.56
22662;BME280;11497;52.222;21.246;2023-03-14T02:58:27;98653.28;;;6.75;74.68
22662;BME280;11497;52.222;21.246;2023-03-14T03:01:03;98648.50;;;6.66;75.01
22662;BME280;11497;52.222;21.246;2023-03-14T03:03:31;98654.41;;;6.70;74.78
22662;BME280;11497;52.222;21.246;2023-03-14T03:05:59;98651.88;;;6.68;74.63
22662;BME280;11497;52.222;21.246;2023-03-14T03:08:28;98651.28;;;6.61;74.57
22662;BME280;11497;52.222;21.246;2023-03-14T03:10:58;98636.22;;;6.70;74.41
22662;BME280;11497;52.222;21.246;2023-03-14T03:13:28;98646.47;;;6.91;73.87
22662;BME280;11497;52.222;21.246;2023-03-14T03:15:57;98647.53;;;6.87;73.29
22662;BME280;11497;52.222;21.246;2023-03-14T03:18:25;98652.41;;;6.93;72.95
22662;BME280;11497;52.222;21.246;2023-03-14T03:20:53;98647.06;;;6.96;72.64
22662;BME280;11497;52.222;21.246;2023-03-14T03:23:22;98649.34;;;6.85;72.73
22662;BME280;11497;52.222;21.246;2023-03-14T03:25:51;98650.75;;;6.92;72.54
22662;BME280;11497;52.222;21.246;2023-03-14T03:28:19;98627.78;;;6.83;72.05
22662;BME280;11497;52.222;21.246;2023-03-14T03:30:47;98650.91;;;6.89;72.15
22662;BME280;11497;52.222;21.246;2023-03-14T03:33:15;98649.50;;;6.82;71.97
22662;BME280;11497;52.222;21.246;2023-03-14T03:35:49;98636.34;;;6.85;72.36
22662;BME280;11497;52.222;21.246;2023-03-14T03:38:23;98618.28;;;6.82;72.16
22662;BME280;11497;52.222;21.246;2023-03-14T03:40:54;98607.63;;;6.88;71.80
22662;BME280;11497;52.222;21.246;2023-03-14T03:43:25;98606.22;;;6.81;71.69
22662;BME280;11497;52.222;21.246;2023-03-14T03:45:53;98629.38;;;6.67;72.02
22662;BME280;11497;52.222;21.246;2023-03-14T03:48:23;98619.97;;;6.64;72.09
22662;BME280;11497;52.222;21.246;2023-03-14T03:50:51;98625.03;;;6.67;72.48
22662;BME280;11497;52.222;21.246;2023-03-14T03:53:22;98628.38;;;6.51;72.61
22662;BME280;11497;52.222;21.246;2023-03-14T03:56:00;98613.09;;;6.63;72.73
22662;BME280;11497;52.222;21.246;2023-03-14T03:58:29;98616.47;;;6.65;72.54
22662;BME280;11497;52.222;21.246;2023-03-14T04:00:57;98613.22;;;6.79;72.10
22662;BME280;11497;52.222;21.246;2023-03-14T04:03:25;98609.16;;;6.74;72.08
22662;BME280;11497;52.222;21.246;2023-03-14T04:06:04;98619.06;;;6.84;72.07
22662;BME280;11497;52.222;21.246;2023-03-14T04:08:34;98613.38;;;6.76;71.83
22662;BME280;11497;52.222;21.246;2023-03-14T04:11:03;98617.66;;;6.77;72.19
22662;BME280;11497;52.222;21.246;2023-03-14T04:13:51;98618.78;;;6.90;71.64
22662;BME280;11497;52.222;21.246;2023-03-14T04:16:24;98620.94;;;6.99;71.32
22662;BME280;11497;52.222;21.246;2023-03-14T04:18:59;98630.56;;;6.97;70.87
22662;BME280;11497;52.222;21.246;2023-03-14T04:21:27;98619.84;;;6.86;71.11
22662;BME280;11497;52.222;21.246;2023-03-14T04:23:57;98626.59;;;6.90;70.74
22662;BME280;11497;52.222;21.246;2023-03-14T04:26:29;98626.72;;;6.87;70.95
22662;BME280;11497;52.222;21.246;2023-03-14T04:28:57;98639.38;;;6.76;71.29
22662;BME280;11497;52.222;21.246;2023-03-14T04:31:25;98626.22;;;6.79;71.07
22662;BME280;11497;52.222;21.246;2023-03-14T04:33:53;98625.72;;;6.71;71.12
22662;BME280;11497;52.222;21.246;2023-03-14T04:36:29;98616.16;;;6.53;71.54
22662;BME280;11497;52.222;21.246;2023-03-14T04:39:02;98630.81;;;6.74;71.17
22662;BME280;11497;52.222;21.246;2023-03-14T04:41:33;98633.31;;;6.57;71.66
22662;BME280;11497;52.222;21.246;2023-03-14T04:44:01;98637.59;;;6.58;71.56
22662;BME280;11497;52.222;21.246;2023-03-14T04:46:29;98629.94;;;6.55;71.87
22662;BME280;11497;52.222;21.246;2023-03-14T04:48:57;98618.00;;;6.70;71.40
22662;BME280;11497;52.222;21.246;2023-03-14T04:51:25;98619.59;;;6.53;71.72
22662;BME280;11497;52.222;21.246;2023-03-14T04:53:54;98617.16;;;6.69;71.51
22662;BME280;11497;52.222;21.246;2023-03-14T04:56:23;98604.53;;;6.80;71.44
22662;BME280;11497;52.222;21.246;2023-03-14T04:58:51;98595.06;;;6.96;70.73
22662;BME280;11497;52.222;21.246;2023-03-14T05:01:19;98592.84;;;6.89;70.63
22662;BME280;11497;52.222;21.246;2023-03-14T05:04:16;98587.47;;;7.11;70.07
22662;BME280;11497;52.222;21.246;2023-03-14T05:07:19;98579.94;;;6.87;70.47
22662;BME280;11497;52.222;21.246;2023-03-14T05:09:58;98576.50;;;7.04;70.30
22662;BME280;11497;52.222;21.246;2023-03-14T05:12:43;98578.88;;;7.09;70.20
22662;BME280;11497;52.222;21.246;2023-03-14T05:15:31;98578.16;;;7.24;69.64
22662;BME280;11497;52.222;21.246;2023-03-14T05:18:22;98560.56;;;7.29;69.31
22662;BME280;11497;52.222;21.246;2023-03-14T05:20:59;98568.38;;;7.46;69.10
22662;BME280;11497;52.222;21.246;2023-03-14T05:23:50;98555.50;;;7.60;68.66
22662;BME280;11497;52.222;21.246;2023-03-14T05:26:35;98543.47;;;7.75;67.72
22662;BME280;11497;52.222;21.246;2023-03-14T05:29:23;98539.81;;;7.79;67.27
22662;BME280;11497;52.222;21.246;2023-03-14T05:32:09;98537.47;;;7.90;66.59
22662;BME280;11497;52.222;21.246;2023-03-14T05:34:56;98549.56;;;7.91;66.23
22662;BME280;11497;52.222;21.246;2023-03-14T05:37:46;98553.00;;;7.92;66.01
22662;BME280;11497;52.222;21.246;2023-03-14T05:40:23;98574.47;;;7.97;65.97
22662;BME280;11497;52.222;21.246;2023-03-14T05:43:01;98556.19;;;8.14;65.55
22662;BME280;11497;52.222;21.246;2023-03-14T05:45:48;98551.00;;;8.30;64.98
22662;BME280;11497;52.222;21.246;2023-03-14T05:48:34;98546.88;;;8.59;64.37
22662;BME280;11497;52.222;21.246;2023-03-14T05:51:16;98538.69;;;8.96;63.43
22662;BME280;11497;52.222;21.246;2023-03-14T05:54:00;98522.88;;;9.74;61.46
22662;BME280;11497;52.222;21.246;2023-03-14T05:56:41;98529.75;;;10.33;59.81
22662;BME280;11497;52.222;21.246;2023-03-14T05:59:16;98526.69;;;9.96;58.96
22662;BME280;11497;52.222;21.246;2023-03-14T06:01:54;98520.66;;;10.10;58.41
22662;BME280;11497;52.222;21.246;2023-03-14T06:04:26;98523.75;;;11.65;56.35
22662;BME280;11497;52.222;21.246;2023-03-14T06:06:58;98502.97;;;12.99;53.84
22662;BME280;11497;52.222;21.246;2023-03-14T06:09:26;98502.94;;;12.75;52.04
22662;BME280;11497;52.222;21.246;2023-03-14T06:11:57;98502.50;;;12.81;51.11
22662;BME280;11497;52.222;21.246;2023-03-14T06:14:25;98499.97;;;11.94;51.29
22662;BME280;11497;52.222;21.246;2023-03-14T06:16:53;98480.47;;;11.85;51.81
22662;BME280;11497;52.222;21.246;2023-03-14T06:19:24;98496.44;;;12.68;51.40
22662;BME280;11497;52.222;21.246;2023-03-14T06:21:52;98485.56;;;13.33;49.93
22662;BME280;11497;52.222;21.246;2023-03-14T06:24:20;98484.63;;;13.45;49.12
22662;BME280;11497;52.222;21.246;2023-03-14T06:26:52;98484.41;;;13.48;48.43
22662;BME280;11497;52.222;21.246;2023-03-14T06:29:20;98492.63;;;13.32;48.09
22662;BME280;11497;52.222;21.246;2023-03-14T06:31:48;98477.31;;;13.26;48.35
22662;BME280;11497;52.222;21.246;2023-03-14T06:34:18;98479.19;;;13.00;47.93
22662;BME280;11497;52.222;21.246;2023-03-14T06:36:46;98497.41;;;12.30;48.68
22662;BME280;11497;52.222;21.246;2023-03-14T06:39:15;98493.63;;;12.22;49.44
22662;BME280;11497;52.222;21.246;2023-03-14T06:41:47;98493.44;;;11.74;49.60
22662;BME280;11497;52.222;21.246;2023-03-14T06:44:15;98489.03;;;11.49;50.25
22662;BME280;11497;52.222;21.246;2023-03-14T06:46:44;98478.75;;;11.46;50.81
22662;BME280;11497;52.222;21.246;2023-03-14T06:49:12;98482.09;;;11.74;50.93
22662;BME280;11497;52.222;21.246;2023-03-14T06:51:40;98490.91;;;12.23;50.71
22662;BME280;11497;52.222;21.246;2023-03-14T06:54:10;98480.66;;;13.75;49.21
22662;BME280;11497;52.222;21.246;2023-03-14T06:56:38;98476.84;;;14.12;47.13
22662;BME280;11497;52.222;21.246;2023-03-14T06:59:07;98489.00;;;14.36;46.00
22662;BME280;11497;52.222;21.246;2023-03-14T07:01:35;98476.03;;;14.77;45.06
22662;BME280;11497;52.222;21.246;2023-03-14T07:04:06;98474.41;;;14.65;45.00
22662;BME280;11497;52.222;21.246;2023-03-14T07:06:36;98473.22;;;14.58;44.33
22662;BME280;11497;52.222;21.246;2023-03-14T07:09:05;98471.44;;;14.58;44.64
22662;BME280;11497;52.222;21.246;2023-03-14T07:11:36;98476.94;;;14.98;44.43
22662;BME280;11497;52.222;21.246;2023-03-14T07:14:04;98476.78;;;15.11;43.73
22662;BME280;11497;52.222;21.246;2023-03-14T07:16:32;98485.06;;;15.07;43.28
22662;BME280;11497;52.222;21.246;2023-03-14T07:19:01;98479.34;;;14.58;43.87
22662;BME280;11497;52.222;21.246;2023-03-14T07:21:29;98482.56;;;14.06;44.41
22662;BME280;11497;52.222;21.246;2023-03-14T07:24:00;98487.38;;;14.12;44.80
22662;BME280;11497;52.222;21.246;2023-03-14T07:26:28;98470.34;;;14.39;44.46
22662;BME280;11497;52.222;21.246;2023-03-14T07:28:56;98464.88;;;14.08;45.09
22662;BME280;11497;52.222;21.246;2023-03-14T07:31:24;98476.56;;;13.71;45.77
22662;BME280;11497;52.222;21.246;2023-03-14T07:33:52;98485.19;;;13.73;45.79
22662;BME280;11497;52.222;21.246;2023-03-14T07:36:22;98484.13;;;13.75;45.86
22662;BME280;11497;52.222;21.246;2023-03-14T07:38:50;98491.13;;;13.63;46.00
22662;BME280;11497;52.222;21.246;2023-03-14T07:41:37;98496.31;;;13.30;46.43
22662;BME280;11497;52.222;21.246;2023-03-14T07:44:40;98513.03;;;13.29;47.07
22662;BME280;11497;52.222;21.246;2023-03-14T07:47:08;98515.78;;;13.74;46.69
22662;BME280;11497;52.222;21.246;2023-03-14T07:49:36;98508.75;;;13.85;46.61
22662;BME280;11497;52.222;21.246;2023-03-14T07:52:04;98494.13;;;15.14;45.91
22662;BME280;11497;52.222;21.246;2023-03-14T07:54:31;98497.13;;;16.93;43.26
22662;BME280;11497;52.222;21.246;2023-03-14T07:56:59;98487.34;;;17.90;41.27
22662;BME280;11497;52.222;21.246;2023-03-14T07:59:28;98496.50;;;19.33;39.28
22662;BME280;11497;52.222;21.246;2023-03-14T08:01:56;98487.31;;;20.49;36.95
22662;BME280;11497;52.222;21.246;2023-03-14T08:04:23;98492.03;;;21.78;35.05
22662;BME280;11497;52.222;21.246;2023-03-14T08:06:51;98492.69;;;21.72;33.56
22662;BME280;11497;52.222;21.246;2023-03-14T08:09:21;98484.44;;;20.84;33.70
22662;BME280;11497;52.222;21.246;2023-03-14T08:11:49;98496.47;;;21.13;33.74
22662;BME280;11497;52.222;21.246;2023-03-14T08:14:17;98485.88;;;21.21;33.36
22662;BME280;11497;52.222;21.246;2023-03-14T08:16:45;98495.00;;;22.55;32.59
22662;BME280;11497;52.222;21.246;2023-03-14T08:19:13;98500.75;;;23.60;31.17
22662;BME280;11497;52.222;21.246;2023-03-14T08:21:41;98495.81;;;25.04;29.51
22662;BME280;11497;52.222;21.246;2023-03-14T08:24:09;98496.09;;;24.79;28.53
22662;BME280;11497;52.222;21.246;2023-03-14T08:26:37;98485.09;;;24.24;27.90
22662;BME280;11497;52.222;21.246;2023-03-14T08:29:05;98491.00;;;23.21;29.11
22662;BME280;11497;52.222;21.246;2023-03-14T08:31:33;98492.06;;;23.12;28.84
22662;BME280;11497;52.222;21.246;2023-03-14T08:34:02;98482.06;;;23.37;29.28
22662;BME280;11497;52.222;21.246;2023-03-14T08:36:30;98480.25;;;23.89;28.33
22662;BME280;11497;52.222;21.246;2023-03-14T08:38:58;98490.16;;;24.48;28.37
22662;BME280;11497;52.222;21.246;2023-03-14T08:41:26;98500.41;;;24.44;27.46
22662;BME280;11497;52.222;21.246;2023-03-14T08:43:54;98498.34;;;23.19;28.17
22662;BME280;11497;52.222;21.246;2023-03-14T08:46:22;98482.91;;;22.83;28.48
22662;BME280;11497;52.222;21.246;2023-03-14T08:48:50;98509.38;;;23.16;28.74
22662;BME280;11497;52.222;21.246;2023-03-14T08:51:18;98497.09;;;23.75;28.49
22662;BME280;11497;52.222;21.246;2023-03-14T08:53:45;98492.66;;;24.20;27.85
22662;BME280;11497;52.222;21.246;2023-03-14T08:56:14;98502.44;;;24.42;26.97
22662;BME280;11497;52.222;21.246;2023-03-14T08:58:42;98497.50;;;24.75;27.11
22662;BME280;11497;52.222;21.246;2023-03-14T09:01:11;98483.19;;;24.83;26.75
22662;BME280;11497;52.222;21.246;2023-03-14T09:03:39;98486.53;;;23.97;27.09
22662;BME280;11497;52.222;21.246;2023-03-14T09:06:09;98479.44;;;23.89;27.50
22662;BME280;11497;52.222;21.246;2023-03-14T09:08:37;98478.19;;;22.94;27.81
22662;BME280;11497;52.222;21.246;2023-03-14T09:11:09;98486.13;;;23.25;28.26
22662;BME280;11497;52.222;21.246;2023-03-14T09:13:37;98482.13;;;22.98;28.21
22662;BME280;11497;52.222;21.246;2023-03-14T09:16:06;98478.91;;;23.33;28.14
22662;BME280;11497;52.222;21.246;2023-03-14T09:18:33;98460.38;;;23.77;27.90
22662;BME280;11497;52.222;21.246;2023-03-14T09:21:02;98473.66;;;22.55;28.55
22662;BME280;11497;52.222;21.246;2023-03-14T09:23:29;98465.63;;;23.25;28.41
22662;BME280;11497;52.222;21.246;2023-03-14T09:25:58;98456.56;;;23.49;28.14
22662;BME280;11497;52.222;21.246;2023-03-14T09:28:26;98458.09;;;24.18;27.88
22662;BME280;11497;52.222;21.246;2023-03-14T09:30:54;98448.88;;;25.72;26.80
22662;BME280;11497;52.222;21.246;2023-03-14T09:33:22;98442.34;;;25.60;25.92
22662;BME280;11497;52.222;21.246;2023-03-14T09:35:50;98448.50;;;25.75;26.15
22662;BME280;11497;52.222;21.246;2023-03-14T09:38:18;98431.00;;;25.79;25.49
22662;BME280;11497;52.222;21.246;2023-03-14T09:40:49;98424.19;;;26.52;25.06
22662;BME280;11497;52.222;21.246;2023-03-14T09:43:17;98428.06;;;26.43;24.67
22662;BME280;11497;52.222;21.246;2023-03-14T09:45:46;98416.91;;;26.33;24.92
22662;BME280;11497;52.222;21.246;2023-03-14T09:48:33;98420.09;;;26.15;24.75
22662;BME280;11497;52.222;21.246;2023-03-14T09:51:06;98408.13;;;26.17;25.11
22662;BME280;11497;52.222;21.246;2023-03-14T09:53:44;98406.44;;;25.47;25.26
22662;BME280;11497;52.222;21.246;2023-03-14T09:56:19;98408.59;;;23.78;26.41
22662;BME280;11497;52.222;21.246;2023-03-14T09:59:08;98399.69;;;23.11;27.28
22662;BME280;11497;52.222;21.246;2023-03-14T10:01:41;98389.31;;;22.39;28.09
22662;BME280;11497;52.222;21.246;2023-03-14T10:04:18;98377.41;;;22.19;29.04
22662;BME280;11497;52.222;21.246;2023-03-14T10:06:48;98387.53;;;22.54;29.02
22662;BME280;11497;52.222;21.246;2023-03-14T10:09:20;98373.16;;;22.95;28.49
22662;BME280;11497;52.222;21.246;2023-03-14T10:11:56;98379.50;;;22.63;28.59
22662;BME280;11497;52.222;21.246;2023-03-14T10:14:33;98369.22;;;22.20;28.99
22662;BME280;11497;52.222;21.246;2023-03-14T10:17:10;98387.00;;;21.89;29.29
22662;BME280;11497;52.222;21.246;2023-03-14T10:19:51;98378.41;;;21.63;29.91
22662;BME280;11497;52.222;21.246;2023-03-14T10:22:21;98388.44;;;21.44;30.62
22662;BME280;11497;52.222;21.246;2023-03-14T10:24:56;98380.78;;;21.01;31.14
22662;BME280;11497;52.222;21.246;2023-03-14T10:27:35;98386.75;;;20.20;32.07
22662;BME280;11497;52.222;21.246;2023-03-14T10:30:19;98384.13;;;19.86;32.94
22662;BME280;11497;52.222;21.246;2023-03-14T10:32:54;98378.81;;;19.34;33.79
22662;BME280;11497;52.222;21.246;2023-03-14T10:35:23;98373.38;;;19.18;34.27
22662;BME280;11497;52.222;21.246;2023-03-14T10:37:58;98359.72;;;19.31;34.08
22662;BME280;11497;52.222;21.246;2023-03-14T10:40:37;98362.47;;;19.21;34.34
22662;BME280;11497;52.222;21.246;2023-03-14T10:43:13;98361.38;;;19.06;34.62
22662;BME280;11497;52.222;21.246;2023-03-14T10:45:43;98360.50;;;19.23;34.59
22662;BME280;11497;52.222;21.246;2023-03-14T10:48:20;98350.63;;;19.33;34.81
22662;BME280;11497;52.222;21.246;2023-03-14T10:54:23;98369.25;;;19.41;34.65
22662;BME280;11497;52.222;21.246;2023-03-14T10:57:00;98362.47;;;19.21;34.81
22662;BME280;11497;52.222;21.246;2023-03-14T10:59:37;98353.59;;;18.86;35.17
22662;BME280;11497;52.222;21.246;2023-03-14T11:09:50;98359.88;;;17.68;37.08
22662;BME280;11497;52.222;21.246;2023-03-14T11:19:00;98382.56;;;16.75;39.04
22662;BME280;11497;52.222;21.246;2023-03-14T11:21:41;98368.09;;;16.79;39.42
22662;BME280;11497;52.222;21.246;2023-03-14T11:30:32;98391.72;;;16.90;39.67
22662;BME280;11497;52.222;21.246;2023-03-14T11:36:07;98383.78;;;16.90;39.73
22662;BME280;11497;52.222;21.246;2023-03-14T11:38:52;98373.50;;;17.16;39.65
22662;BME280;11497;52.222;21.246;2023-03-14T11:42:08;98360.03;;;17.56;39.29
22662;BME280;11497;52.222;21.246;2023-03-14T11:44:18;98362.38;;;17.59;38.83
22662;BME280;11497;52.222;21.246;2023-03-14T11:50:02;98346.09;;;18.64;37.89
22662;BME280;11497;52.222;21.246;2023-03-14T11:52:37;98339.19;;;18.53;37.77
22662;BME280;11497;52.222;21.246;2023-03-14T11:55:43;98340.41;;;18.59;37.54
22662;BME280;11497;52.222;21.246;2023-03-14T11:58:26;98347.59;;;18.21;37.73
22662;BME280;11497;52.222;21.246;2023-03-14T12:00:56;98351.41;;;17.54;38.35
22662;BME280;11497;52.222;21.246;2023-03-14T12:03:39;98354.94;;;17.36;39.00
22662;BME280;11497;52.222;21.246;2023-03-14T12:08:59;98355.13;;;17.15;40.06
22662;BME280;11497;52.222;21.246;2023-03-14T12:17:06;98364.19;;;16.45;41.20
22662;BME280;11497;52.222;21.246;2023-03-14T12:19:37;98351.53;;;16.39;41.60
22662;BME280;11497;52.222;21.246;2023-03-14T12:22:27;98352.06;;;16.52;41.85
22662;BME280;11497;52.222;21.246;2023-03-14T12:25:20;98359.97;;;17.29;40.98
22662;BME280;11497;52.222;21.246;2023-03-14T12:40:58;98358.75;;;17.70;39.50
22662;BME280;11497;52.222;21.246;2023-03-14T12:43:33;98364.91;;;17.51;39.58
22662;BME280;11497;52.222;21.246;2023-03-14T12:46:22;98371.41;;;17.10;40.42
22662;BME280;11497;52.222;21.246;2023-03-14T12:49:03;98364.34;;;16.72;40.86
22662;BME280;11497;52.222;21.246;2023-03-14T12:51:40;98361.97;;;16.69;41.14
22662;BME280;11497;52.222;21.246;2023-03-14T12:59:52;98353.91;;;16.90;41.51
22662;BME280;11497;52.222;21.246;2023-03-14T13:02:27;98361.44;;;16.75;41.87
22662;BME280;11497;52.222;21.246;2023-03-14T13:05:12;98365.88;;;16.65;42.33
22662;BME280;11497;52.222;21.246;2023-03-14T13:15:43;98371.78;;;15.79;43.83
22662;BME280;11497;52.222;21.246;2023-03-14T13:18:29;98376.72;;;15.42;44.74
22662;BME280;11497;52.222;21.246;2023-03-14T13:21:22;98389.81;;;15.32;45.31
22662;BME280;11497;52.222;21.246;2023-03-14T13:24:03;98384.63;;;15.21;46.29
22662;BME280;11497;52.222;21.246;2023-03-14T13:26:37;98390.97;;;15.18;47.14
22662;BME280;11497;52.222;21.246;2023-03-14T13:29:23;98403.44;;;14.95;48.84
22662;BME280;11497;52.222;21.246;2023-03-14T13:31:56;98405.06;;;15.08;50.19
22662;BME280;11497;52.222;21.246;2023-03-14T13:34:34;98413.25;;;14.93;51.81
22662;BME280;11497;52.222;21.246;2023-03-14T13:37:02;98408.13;;;14.92;53.07
22662;BME280;11497;52.222;21.246;2023-03-14T13:39:32;98406.56;;;14.69;53.86
22662;BME280;11497;52.222;21.246;2023-03-14T13:42:01;98408.75;;;14.52;54.80
22662;BME280;11497;52.222;21.246;2023-03-14T13:47:01;98407.84;;;14.20;57.26
22662;BME280;11497;52.222;21.246;2023-03-14T13:49:30;98412.28;;;14.08;58.84
22662;BME280;11497;52.222;21.246;2023-03-14T13:52:00;98405.13;;;13.65;59.98
22662;BME280;11497;52.222;21.246;2023-03-14T13:54:29;98405.56;;;13.48;60.91
22662;BME280;11497;52.222;21.246;2023-03-14T13:57:04;98407.47;;;13.35;61.60
22662;BME280;11497;52.222;21.246;2023-03-14T13:59:34;98406.84;;;13.20;62.40
22662;BME280;11497;52.222;21.246;2023-03-14T14:02:12;98406.16;;;13.06;63.70
22662;BME280;11497;52.222;21.246;2023-03-14T14:04:44;98413.53;;;13.00;64.67
22662;BME280;11497;52.222;21.246;2023-03-14T14:07:16;98416.03;;;12.91;65.55
22662;BME280;11497;52.222;21.246;2023-03-14T14:09:52;98418.28;;;12.84;66.09
22662;BME280;11497;52.222;21.246;2023-03-14T14:20:40;98413.22;;;12.46;68.93
22662;BME280;11497;52.222;21.246;2023-03-14T14:23:27;98406.47;;;12.55;68.87
22662;BME280;11497;52.222;21.246;2023-03-14T14:25:57;98395.56;;;12.48;69.62
22662;BME280;11497;52.222;21.246;2023-03-14T14:28:34;98398.53;;;12.44;70.34
22662;BME280;11497;52.222;21.246;2023-03-14T14:31:21;98401.84;;;12.22;71.07
22662;BME280;11497;52.222;21.246;2023-03-14T14:34:03;98393.13;;;12.21;72.27
22662;BME280;11497;52.222;21.246;2023-03-14T14:36:39;98393.13;;;12.21;73.41
22662;BME280;11497;52.222;21.246;2023-03-14T14:39:25;98385.28;;;12.21;74.28
22662;BME280;11497;52.222;21.246;2023-03-14T14:41:54;98378.09;;;12.12;75.36
22662;BME280;11497;52.222;21.246;2023-03-14T14:44:34;98374.78;;;11.85;76.71
22662;BME280;11497;52.222;21.246;2023-03-14T14:47:05;98379.06;;;11.98;77.11
22662;BME280;11497;52.222;21.246;2023-03-14T14:49:33;98375.84;;;11.70;78.39